Relevés horaires St-Hubert (Belgique)


Relevés horaires à St-Hubert - Mardi 20 Mai 2014
Heure UTC1 Température [°C] Vent [km/h] Hum. [%] Pres.4 [hPa] Visi. [Km] Nébu. [octa] Préc.5 [mm] Cond.
2m. Res. Ros. Dir.2 Vit. Moy. Raf.3
23:00 11.4 11.4 10.1 NNE 1.9 5.6 7.4 92 1013.9(1.2/3h) 45 0/8 -- --
22:00 12.5 12.4 9.7 NNO 5.6 7.4 9.3 83 1013.4(1.4/3h) 45 1/8 -- --
21:00 16.2 16.2 9.7 SSE 3.7 5.6 11.1 65 1011.9(0.6/3h) 45 0/8 -- --
20:00 16.9 16.9 10.1 SE 5.6 5.6 9.3 64 1011.3(-0.2/3h) 45 0/8 -- --
19:00 17.2 17.2 10.5 SE 3.7 5.6 9.3 65 1010.9(-0.3/3h) 45 0/8 -- --
18:00 18.8 18.8 10.8 SSE 3.7 9.3 18.5 60 1010.7(-0.2/3h) 45 0/8 0/12h
--
17:00 19.3 19.3 9.7 NNO 3.7 5.6 13.0 54 1010.6(0.1/3h) 40 0/8 -- --
16:00 19.7 19.7 9.4 S 5.6 9.3 16.7 51 1010.7(0.0/3h) 40 7/8 -- --
15:00 20.8 20.8 10.9 NNO 7.4 9.3 18.5 53 1010.5(0.2/3h) 29 7/8 -- --
14:00 20.7 20.7 9.7 NNO 5.6 7.4 16.7 49 1010.5(0.3/3h) 35 0/8 -- --
13:00 20.3 20.3 11.1 NNO 7.4 9.3 18.5 55 1010.5(0.4/3h) 35 0/8 -- --
12:00 20.5 20.5 9.4 S 7.4 9.3 18.5 49 1010.3(-0.1/3h) 30 1/8 0/6h
--
11:00 19.6 19.6 9.3 NNO 7.4 7.4 18.5 51 1010.4(0.2/3h) 35 0/8 -- --
10:00 18.8 18.8 10.0 NNO 5.6 7.4 14.8 57 1010.5(0.5/3h) 30 1/8 -- --
09:00 17.1 17.1 10.5 S 3.7 7.4 14.8 65 1010.9(1.0/3h) 40 8/8 -- --
08:00 15.9 15.9 9.4 S 5.6 7.4 14.8 65 1011(1.1/3h) 35 0/8 -- --
07:00 15.0 15.0 8.6 SSE 5.6 7.4 14.8 66 1010.8(0.7/3h) 45 0/8 -- --
06:00 15.0 15.0 8.1 S 5.6 5.6 14.8 63 1010.4(0.6/3h) 40 0/8 0/12h
--
05:00 14.5 14.5 7.9 S 5.6 5.6 13.0 65 1010.2(0.5/3h) 45 2/8 -- --
04:00 14.0 14.0 7.7 S 5.6 5.6 9.3 66 1010.3(0.8/3h) 45 0/8 -- --
03:00 14.6 14.6 7.3 S 3.7 5.6 11.1 62 1009.8(0.6/3h) 40 0/8 -- --
02:00 14.5 14.5 6.8 S 3.7 3.7 9.3 60 1009.6(0.6/3h) 45 0/8 -- --
01:00 14.5 14.5 6.6 S 3.7 5.6 11.1 59 1009.4(0.5/3h) 45 0/8 -- Ciel clair
00:00 15.0 15.0 6.7 S 3.7 5.6 13.0 58 1009.1(0.6/3h) 45 0/8 0/6h
0/24h
--

1 Coordinated Universal Time. Actuellement il est 04:00 locale et 03:00 UTC.

2 Le vent souffle depuis la direction indiquée vers la direction oposée.

3 Les rafales max. sont disponible 40 min après l'heure du relevé.

4 Pour les stations d'altitude (plus de 600m) le géopotentiel du niveau le plus proche de la pression obligatoire est indiqué.

5 Les stations disposant d'un diffuseur peuvent indiquer "trace". Cela signifie que des précipitations ont touchés le sol mais que la quantité est inférieure à 0.1 mm.

Récapitulatif de la journée
Température [°C] Vent [km/h] Ensoleillement4 [h] Precipitations totale5 [mm] Pression [Hpa]
Min1 Max.2 Moy.3 Max. Min Max.
13.9 21.3 6.8 18.5 0 h 0 min 0 1009.1 1013.9

1 Température minimale relevée entre 18:00 UTC la veille et 18:00 UTC le jour donné.

2 Température maximale relevée entre 06:00 UTC le jour donné et 06:00 UTC le lendemain.

3 Vent moyen de la journée basé sur les relevés horaires.

4 Ensoleillement en heures relevé entre 06:00 UTC la veille et 06:00 UTC le jour donné.

5 Précipitations totales tombées entre 06:00 UTC la jour donné et 06:00 UTC le lendemain.

Graphiques horaires